sensor_id;sensor_type;location;lat;lon;timestamp;pressure;altitude;pressure_sealevel;temperature;humidity
58092;BME280;43896;48.178;11.578;2023-10-19T04:51:20;94271.75;;;10.75;79.22
58092;BME280;43896;48.178;11.578;2023-10-19T04:54:09;94263.72;;;10.83;78.69
58092;BME280;43896;48.178;11.578;2023-10-19T04:56:41;94266.94;;;9.95;83.12
58092;BME280;43896;48.178;11.578;2023-10-19T04:59:08;94281.78;;;10.51;80.90
58092;BME280;43896;48.178;11.578;2023-10-19T05:01:34;94285.53;;;10.84;79.29
58092;BME280;43896;48.178;11.578;2023-10-19T05:04:02;94282.91;;;10.77;79.35
58092;BME280;43896;48.178;11.578;2023-10-19T05:06:29;94276.84;;;10.83;79.33
58092;BME280;43896;48.178;11.578;2023-10-19T05:08:54;94265.13;;;10.93;79.09
58092;BME280;43896;48.178;11.578;2023-10-19T05:11:20;94262.09;;;10.96;79.25
58092;BME280;43896;48.178;11.578;2023-10-19T05:13:48;94260.69;;;10.93;78.81
58092;BME280;43896;48.178;11.578;2023-10-19T05:16:24;94252.81;;;11.00;78.98
58092;BME280;43896;48.178;11.578;2023-10-19T05:21:35;94260.44;;;10.75;80.23
58092;BME280;43896;48.178;11.578;2023-10-19T05:24:02;94254.19;;;10.82;80.15
58092;BME280;43896;48.178;11.578;2023-10-19T05:26:46;94251.22;;;11.05;79.24
58092;BME280;43896;48.178;11.578;2023-10-19T05:38:03;94262.34;;;11.07;78.33
58092;BME280;43896;48.178;11.578;2023-10-19T05:40:29;94262.31;;;10.94;79.31
58092;BME280;43896;48.178;11.578;2023-10-19T05:49:27;94249.56;;;10.98;79.72
58092;BME280;43896;48.178;11.578;2023-10-19T05:51:53;94245.72;;;11.07;79.12
58092;BME280;43896;48.178;11.578;2023-10-19T05:54:18;94242.28;;;11.06;79.40
58092;BME280;43896;48.178;11.578;2023-10-19T05:56:44;94245.72;;;11.07;78.87
58092;BME280;43896;48.178;11.578;2023-10-19T05:59:11;94244.91;;;11.06;79.08
58092;BME280;43896;48.178;11.578;2023-10-19T06:01:36;94236.81;;;10.33;81.60
58092;BME280;43896;48.178;11.578;2023-10-19T06:04:20;94234.50;;;10.17;83.78
58092;BME280;43896;48.178;11.578;2023-10-19T06:06:45;94241.41;;;10.66;81.87
58092;BME280;43896;48.178;11.578;2023-10-19T06:09:11;94245.31;;;10.97;80.61
58092;BME280;43896;48.178;11.578;2023-10-19T06:11:36;94246.97;;;11.11;79.29
58092;BME280;43896;48.178;11.578;2023-10-19T06:14:08;94245.75;;;11.20;78.94
58092;BME280;43896;48.178;11.578;2023-10-19T06:16:33;94253.63;;;11.20;78.44
58092;BME280;43896;48.178;11.578;2023-10-19T06:18:59;94251.00;;;11.20;78.65
58092;BME280;43896;48.178;11.578;2023-10-19T06:21:24;94252.63;;;11.15;79.07
58092;BME280;43896;48.178;11.578;2023-10-19T06:23:49;94255.84;;;11.10;78.81
58092;BME280;43896;48.178;11.578;2023-10-19T06:26:15;94257.91;;;11.21;78.59
58092;BME280;43896;48.178;11.578;2023-10-19T06:28:41;94263.16;;;11.15;78.80
58092;BME280;43896;48.178;11.578;2023-10-19T06:31:06;94255.78;;;10.77;80.08
58092;BME280;43896;48.178;11.578;2023-10-19T06:33:32;94255.63;;;10.85;80.50
58092;BME280;43896;48.178;11.578;2023-10-19T06:35:58;94247.34;;;11.08;79.76
58092;BME280;43896;48.178;11.578;2023-10-19T06:38:24;94246.00;;;10.57;81.93
58092;BME280;43896;48.178;11.578;2023-10-19T06:40:49;94246.25;;;10.69;81.56
58092;BME280;43896;48.178;11.578;2023-10-19T06:43:15;94242.03;;;10.88;81.04
58092;BME280;43896;48.178;11.578;2023-10-19T06:45:40;94236.03;;;11.14;79.71
58092;BME280;43896;48.178;11.578;2023-10-19T06:48:05;94241.09;;;11.29;79.40
58092;BME280;43896;48.178;11.578;2023-10-19T06:50:31;94235.44;;;11.39;78.85
58092;BME280;43896;48.178;11.578;2023-10-19T06:52:57;94230.38;;;11.44;78.77
58092;BME280;43896;48.178;11.578;2023-10-19T06:55:22;94230.56;;;11.36;79.46
58092;BME280;43896;48.178;11.578;2023-10-19T06:57:53;94227.94;;;11.36;79.54
58092;BME280;43896;48.178;11.578;2023-10-19T07:00:21;94225.31;;;11.36;79.99
58092;BME280;43896;48.178;11.578;2023-10-19T07:02:47;94236.66;;;11.50;79.51
58092;BME280;43896;48.178;11.578;2023-10-19T07:05:13;94235.03;;;11.55;79.69
58092;BME280;43896;48.178;11.578;2023-10-19T07:07:42;94237.25;;;11.12;82.36
58092;BME280;43896;48.178;11.578;2023-10-19T07:10:08;94241.91;;;11.10;83.26
58092;BME280;43896;48.178;11.578;2023-10-19T07:12:35;94238.06;;;11.59;80.99
58092;BME280;43896;48.178;11.578;2023-10-19T07:15:00;94241.09;;;11.76;80.12
58092;BME280;43896;48.178;11.578;2023-10-19T07:17:26;94235.78;;;11.89;79.11
58092;BME280;43896;48.178;11.578;2023-10-19T07:19:52;94229.34;;;11.98;78.63
58092;BME280;43896;48.178;11.578;2023-10-19T07:22:17;94229.53;;;12.04;79.24
58092;BME280;43896;48.178;11.578;2023-10-19T07:24:47;94241.06;;;12.09;79.38
58092;BME280;43896;48.178;11.578;2023-10-19T07:27:12;94239.00;;;12.18;79.92
58092;BME280;43896;48.178;11.578;2023-10-19T07:29:43;94243.03;;;12.27;79.04
58092;BME280;43896;48.178;11.578;2023-10-19T07:32:08;94245.34;;;11.83;79.36
58092;BME280;43896;48.178;11.578;2023-10-19T07:34:36;94237.03;;;11.67;80.94
58092;BME280;43896;48.178;11.578;2023-10-19T07:37:02;94241.63;;;12.25;79.94
58092;BME280;43896;48.178;11.578;2023-10-19T07:39:28;94238.78;;;12.26;78.48
58092;BME280;43896;48.178;11.578;2023-10-19T07:41:55;94234.50;;;12.32;78.89
58092;BME280;43896;48.178;11.578;2023-10-19T07:44:20;94235.66;;;12.49;78.22
58092;BME280;43896;48.178;11.578;2023-10-19T07:46:46;94234.69;;;12.75;77.04
58092;BME280;43896;48.178;11.578;2023-10-19T07:49:11;94220.22;;;12.91;76.89
58092;BME280;43896;48.178;11.578;2023-10-19T07:51:40;94218.34;;;12.99;77.02
58092;BME280;43896;48.178;11.578;2023-10-19T07:54:06;94219.66;;;13.14;76.19
58092;BME280;43896;48.178;11.578;2023-10-19T07:56:32;94223.13;;;13.15;77.10
58092;BME280;43896;48.178;11.578;2023-10-19T07:58:59;94220.44;;;12.90;79.29
58092;BME280;43896;48.178;11.578;2023-10-19T08:01:24;94232.16;;;12.62;79.33
58092;BME280;43896;48.178;11.578;2023-10-19T08:03:49;94219.59;;;12.57;79.14
58092;BME280;43896;48.178;11.578;2023-10-19T08:06:15;94219.34;;;12.66;80.79
58092;BME280;43896;48.178;11.578;2023-10-19T08:08:40;94219.50;;;13.09;80.38
58092;BME280;43896;48.178;11.578;2023-10-19T08:11:07;94213.22;;;13.10;78.14
58092;BME280;43896;48.178;11.578;2023-10-19T08:13:33;94209.78;;;13.35;76.66
58092;BME280;43896;48.178;11.578;2023-10-19T08:15:59;94207.63;;;13.50;75.85
58092;BME280;43896;48.178;11.578;2023-10-19T08:18:24;94209.59;;;13.62;75.78
58092;BME280;43896;48.178;11.578;2023-10-19T08:20:49;94205.63;;;13.71;75.14
58092;BME280;43896;48.178;11.578;2023-10-19T08:23:15;94204.31;;;13.80;75.11
58092;BME280;43896;48.178;11.578;2023-10-19T08:25:48;94196.69;;;13.91;76.04
58092;BME280;43896;48.178;11.578;2023-10-19T08:28:16;94196.63;;;13.97;75.75
58092;BME280;43896;48.178;11.578;2023-10-19T08:30:41;94190.47;;;14.03;75.03
58092;BME280;43896;48.178;11.578;2023-10-19T08:33:06;94193.03;;;14.10;76.04
58092;BME280;43896;48.178;11.578;2023-10-19T08:35:34;94190.13;;;14.18;76.20
58092;BME280;43896;48.178;11.578;2023-10-19T08:38:00;94191.84;;;14.24;75.74
58092;BME280;43896;48.178;11.578;2023-10-19T08:40:28;94191.19;;;14.29;75.01
58092;BME280;43896;48.178;11.578;2023-10-19T08:42:54;94191.56;;;14.33;74.70
58092;BME280;43896;48.178;11.578;2023-10-19T08:45:20;94189.06;;;14.38;74.10
58092;BME280;43896;48.178;11.578;2023-10-19T08:47:53;94187.78;;;14.40;73.84
58092;BME280;43896;48.178;11.578;2023-10-19T08:50:21;94189.19;;;14.43;73.86
58092;BME280;43896;48.178;11.578;2023-10-19T08:52:48;94190.38;;;14.47;74.08
58092;BME280;43896;48.178;11.578;2023-10-19T08:55:17;94187.50;;;14.49;73.99
58092;BME280;43896;48.178;11.578;2023-10-19T08:57:42;94182.00;;;14.50;74.38
58092;BME280;43896;48.178;11.578;2023-10-19T09:00:08;94188.44;;;14.54;74.36
58092;BME280;43896;48.178;11.578;2023-10-19T09:02:34;94185.34;;;14.57;74.45
58092;BME280;43896;48.178;11.578;2023-10-19T09:05:01;94185.97;;;14.59;74.81
58092;BME280;43896;48.178;11.578;2023-10-19T09:07:31;94194.28;;;14.63;75.21
58092;BME280;43896;48.178;11.578;2023-10-19T09:09:56;94184.28;;;14.65;75.37
58092;BME280;43896;48.178;11.578;2023-10-19T09:12:22;94179.34;;;14.69;75.16
58092;BME280;43896;48.178;11.578;2023-10-19T09:14:48;94185.78;;;14.73;74.42
58092;BME280;43896;48.178;11.578;2023-10-19T09:17:14;94191.44;;;14.76;74.60
58092;BME280;43896;48.178;11.578;2023-10-19T09:19:43;94190.78;;;14.81;74.95
58092;BME280;43896;48.178;11.578;2023-10-19T09:22:09;94187.28;;;14.50;77.44
58092;BME280;43896;48.178;11.578;2023-10-19T09:24:48;94186.38;;;14.75;77.09
58092;BME280;43896;48.178;11.578;2023-10-19T09:27:18;94188.13;;;14.81;76.72
58092;BME280;43896;48.178;11.578;2023-10-19T09:29:44;94177.09;;;14.84;76.28
58092;BME280;43896;48.178;11.578;2023-10-19T09:32:10;94181.94;;;14.87;76.08
58092;BME280;43896;48.178;11.578;2023-10-19T09:34:38;94172.97;;;14.88;75.41
58092;BME280;43896;48.178;11.578;2023-10-19T09:37:06;94173.78;;;14.89;75.47
58092;BME280;43896;48.178;11.578;2023-10-19T09:39:31;94177.00;;;14.91;76.16
58092;BME280;43896;48.178;11.578;2023-10-19T09:42:02;94180.53;;;14.85;76.68
58092;BME280;43896;48.178;11.578;2023-10-19T09:44:37;94177.22;;;14.89;76.32
58092;BME280;43896;48.178;11.578;2023-10-19T09:47:04;94177.34;;;14.94;75.97
58092;BME280;43896;48.178;11.578;2023-10-19T09:49:34;94174.84;;;14.99;75.83
58092;BME280;43896;48.178;11.578;2023-10-19T09:51:59;94175.53;;;15.07;76.57
58092;BME280;43896;48.178;11.578;2023-10-19T09:54:34;94166.00;;;15.17;76.30
58092;BME280;43896;48.178;11.578;2023-10-19T09:57:09;94166.94;;;15.35;76.40
58092;BME280;43896;48.178;11.578;2023-10-19T09:59:38;94174.44;;;15.50;76.56
58092;BME280;43896;48.178;11.578;2023-10-19T10:02:14;94169.72;;;15.28;78.35
58092;BME280;43896;48.178;11.578;2023-10-19T10:04:40;94171.94;;;15.67;77.20
58092;BME280;43896;48.178;11.578;2023-10-19T10:07:06;94165.13;;;15.94;76.33
58092;BME280;43896;48.178;11.578;2023-10-19T10:09:41;94163.44;;;15.77;77.13
58092;BME280;43896;48.178;11.578;2023-10-19T10:14:52;94149.28;;;15.05;78.95
58092;BME280;43896;48.178;11.578;2023-10-19T10:17:23;94137.13;;;14.74;79.39
58092;BME280;43896;48.178;11.578;2023-10-19T10:19:53;94136.06;;;15.05;78.72
58092;BME280;43896;48.178;11.578;2023-10-19T10:22:22;94134.25;;;15.29;78.27
58092;BME280;43896;48.178;11.578;2023-10-19T10:24:56;94144.50;;;15.61;77.30
58092;BME280;43896;48.178;11.578;2023-10-19T10:45:12;94129.41;;;15.38;76.87
58092;BME280;43896;48.178;11.578;2023-10-19T10:47:46;94132.38;;;15.30;76.60
58092;BME280;43896;48.178;11.578;2023-10-19T10:50:11;94133.09;;;15.61;75.07
58092;BME280;43896;48.178;11.578;2023-10-19T10:52:36;94132.06;;;15.62;75.03
58092;BME280;43896;48.178;11.578;2023-10-19T10:55:09;94120.19;;;15.76;74.63
58092;BME280;43896;48.178;11.578;2023-10-19T10:57:38;94115.47;;;15.90;74.04
58092;BME280;43896;48.178;11.578;2023-10-19T11:00:04;94117.19;;;15.84;74.73
58092;BME280;43896;48.178;11.578;2023-10-19T11:02:32;94110.75;;;15.68;75.60
58092;BME280;43896;48.178;11.578;2023-10-19T11:04:57;94110.06;;;15.49;76.49
58092;BME280;43896;48.178;11.578;2023-10-19T11:07:23;94106.03;;;15.47;77.13
58092;BME280;43896;48.178;11.578;2023-10-19T11:09:49;94098.78;;;15.42;77.10
58092;BME280;43896;48.178;11.578;2023-10-19T11:12:14;94094.94;;;15.73;76.26
58092;BME280;43896;48.178;11.578;2023-10-19T11:17:18;94091.97;;;15.46;77.42
58092;BME280;43896;48.178;11.578;2023-10-19T11:19:44;94102.34;;;15.24;78.38
58092;BME280;43896;48.178;11.578;2023-10-19T11:22:12;94099.34;;;15.32;78.26
58092;BME280;43896;48.178;11.578;2023-10-19T11:33:54;94085.72;;;15.88;75.02
58092;BME280;43896;48.178;11.578;2023-10-19T11:39:22;94077.13;;;15.22;77.42
58092;BME280;43896;48.178;11.578;2023-10-19T11:47:31;94035.34;;;15.35;77.24
58092;BME280;43896;48.178;11.578;2023-10-19T11:49:57;94037.00;;;15.65;76.63
58092;BME280;43896;48.178;11.578;2023-10-19T11:52:22;94034.19;;;15.96;76.18
58092;BME280;43896;48.178;11.578;2023-10-19T11:54:48;94027.28;;;15.94;76.59
58092;BME280;43896;48.178;11.578;2023-10-19T11:57:13;94030.75;;;15.83;78.05
58092;BME280;43896;48.178;11.578;2023-10-19T11:59:40;94018.88;;;15.86;78.47
58092;BME280;43896;48.178;11.578;2023-10-19T12:02:06;94009.28;;;15.97;78.80
58092;BME280;43896;48.178;11.578;2023-10-19T12:04:32;94014.50;;;15.80;78.95
58092;BME280;43896;48.178;11.578;2023-10-19T12:07:01;94017.75;;;15.70;78.46
58092;BME280;43896;48.178;11.578;2023-10-19T12:09:26;94004.41;;;15.77;77.17
58092;BME280;43896;48.178;11.578;2023-10-19T12:11:53;94008.25;;;15.98;76.91
58092;BME280;43896;48.178;11.578;2023-10-19T12:24:39;94017.06;;;16.61;73.35
58092;BME280;43896;48.178;11.578;2023-10-19T12:27:05;94021.94;;;16.69;73.11
58092;BME280;43896;48.178;11.578;2023-10-19T12:32:52;94006.66;;;16.42;73.31
58092;BME280;43896;48.178;11.578;2023-10-19T12:35:18;93997.97;;;16.81;72.19
58092;BME280;43896;48.178;11.578;2023-10-19T12:37:50;93985.84;;;16.68;70.59
58092;BME280;43896;48.178;11.578;2023-10-19T12:40:17;93977.41;;;16.54;71.94
58092;BME280;43896;48.178;11.578;2023-10-19T12:42:51;93975.63;;;16.43;72.89
58092;BME280;43896;48.178;11.578;2023-10-19T12:45:19;93976.91;;;16.40;73.58
58092;BME280;43896;48.178;11.578;2023-10-19T12:47:44;93970.16;;;16.49;73.48
58092;BME280;43896;48.178;11.578;2023-10-19T12:50:10;93979.66;;;16.62;72.79
58092;BME280;43896;48.178;11.578;2023-10-19T12:52:38;93975.31;;;16.56;72.02
58092;BME280;43896;48.178;11.578;2023-10-19T12:55:05;93940.97;;;16.49;72.63
58092;BME280;43896;48.178;11.578;2023-10-19T12:57:31;93966.22;;;16.86;72.28
58092;BME280;43896;48.178;11.578;2023-10-19T12:59:57;93960.25;;;16.45;72.82
58092;BME280;43896;48.178;11.578;2023-10-19T13:02:23;93969.03;;;16.62;72.60
58092;BME280;43896;48.178;11.578;2023-10-19T13:04:49;93969.84;;;16.80;71.92
58092;BME280;43896;48.178;11.578;2023-10-19T13:07:14;93967.59;;;16.55;71.44
58092;BME280;43896;48.178;11.578;2023-10-19T13:09:43;93966.47;;;16.50;72.02
58092;BME280;43896;48.178;11.578;2023-10-19T13:12:09;93967.59;;;16.55;72.20
58092;BME280;43896;48.178;11.578;2023-10-19T13:14:35;93966.31;;;16.57;71.94
58092;BME280;43896;48.178;11.578;2023-10-19T13:17:00;93957.75;;;17.06;69.91
58092;BME280;43896;48.178;11.578;2023-10-19T13:19:25;93958.06;;;16.76;71.94
58092;BME280;43896;48.178;11.578;2023-10-19T13:21:51;93963.97;;;16.95;71.01
58092;BME280;43896;48.178;11.578;2023-10-19T13:24:17;93959.81;;;17.21;70.62
58092;BME280;43896;48.178;11.578;2023-10-19T13:26:44;93956.53;;;17.36;70.51
58092;BME280;43896;48.178;11.578;2023-10-19T13:29:11;93958.81;;;17.27;70.26
58092;BME280;43896;48.178;11.578;2023-10-19T13:31:42;93968.47;;;16.94;69.95
58092;BME280;43896;48.178;11.578;2023-10-19T13:34:14;93966.72;;;16.66;71.75
58092;BME280;43896;48.178;11.578;2023-10-19T13:36:40;93961.31;;;16.61;70.56
58092;BME280;43896;48.178;11.578;2023-10-19T13:39:06;93962.44;;;16.48;71.37
58092;BME280;43896;48.178;11.578;2023-10-19T13:41:31;93961.28;;;16.78;70.48
58092;BME280;43896;48.178;11.578;2023-10-19T13:43:57;93958.66;;;16.61;72.04
58092;BME280;43896;48.178;11.578;2023-10-19T13:46:22;93957.13;;;16.65;71.90
58092;BME280;43896;48.178;11.578;2023-10-19T13:48:49;93963.09;;;16.89;70.25
58092;BME280;43896;48.178;11.578;2023-10-19T13:51:18;93962.91;;;16.96;69.64
58092;BME280;43896;48.178;11.578;2023-10-19T13:53:46;93963.47;;;16.98;69.83
58092;BME280;43896;48.178;11.578;2023-10-19T13:56:12;93965.19;;;16.87;70.31
58092;BME280;43896;48.178;11.578;2023-10-19T13:58:37;93969.38;;;16.66;71.50
58092;BME280;43896;48.178;11.578;2023-10-19T14:01:06;93970.00;;;16.73;71.12
58092;BME280;43896;48.178;11.578;2023-10-19T14:03:31;93976.72;;;16.81;70.77
58092;BME280;43896;48.178;11.578;2023-10-19T14:05:57;93983.03;;;16.75;71.64
58092;BME280;43896;48.178;11.578;2023-10-19T14:08:22;93987.34;;;16.81;71.26
58092;BME280;43896;48.178;11.578;2023-10-19T14:10:47;93999.44;;;16.72;71.94
58092;BME280;43896;48.178;11.578;2023-10-19T14:13:12;93998.88;;;16.53;73.10
58092;BME280;43896;48.178;11.578;2023-10-19T14:15:39;93997.56;;;16.55;72.76
58092;BME280;43896;48.178;11.578;2023-10-19T14:18:05;93996.38;;;16.46;73.81
58092;BME280;43896;48.178;11.578;2023-10-19T14:20:30;93981.88;;;16.54;73.30
58092;BME280;43896;48.178;11.578;2023-10-19T14:22:59;93963.31;;;16.37;73.95
58092;BME280;43896;48.178;11.578;2023-10-19T14:25:25;93953.75;;;16.53;73.15
58092;BME280;43896;48.178;11.578;2023-10-19T14:27:52;93935.09;;;16.47;73.49
58092;BME280;43896;48.178;11.578;2023-10-19T14:30:23;93928.25;;;16.18;75.09
58092;BME280;43896;48.178;11.578;2023-10-19T14:32:48;93904.66;;;15.87;76.91
58092;BME280;43896;48.178;11.578;2023-10-19T14:35:14;93886.06;;;15.70;78.48
58092;BME280;43896;48.178;11.578;2023-10-19T14:37:43;93872.38;;;15.90;78.69
58092;BME280;43896;48.178;11.578;2023-10-19T14:40:13;93895.53;;;16.29;77.10
58092;BME280;43896;48.178;11.578;2023-10-19T14:42:40;93938.88;;;16.52;76.48
58092;BME280;43896;48.178;11.578;2023-10-19T14:45:09;93956.81;;;16.61;76.33
58092;BME280;43896;48.178;11.578;2023-10-19T14:47:37;93953.34;;;16.61;76.25
58092;BME280;43896;48.178;11.578;2023-10-19T14:50:05;93949.41;;;16.12;78.76
58092;BME280;43896;48.178;11.578;2023-10-19T14:52:31;93942.84;;;16.03;78.56
58092;BME280;43896;48.178;11.578;2023-10-19T14:54:56;93939.97;;;15.35;81.72
58092;BME280;43896;48.178;11.578;2023-10-19T14:57:21;93940.19;;;15.46;80.96
58092;BME280;43896;48.178;11.578;2023-10-19T14:59:47;93935.75;;;15.23;82.21
58092;BME280;43896;48.178;11.578;2023-10-19T15:02:12;93928.31;;;14.84;83.29
58092;BME280;43896;48.178;11.578;2023-10-19T15:04:38;93939.69;;;14.61;85.11
58092;BME280;43896;48.178;11.578;2023-10-19T15:07:03;93932.59;;;14.73;84.57
58092;BME280;43896;48.178;11.578;2023-10-19T15:09:29;93939.13;;;14.59;85.27
58092;BME280;43896;48.178;11.578;2023-10-19T15:11:55;93932.38;;;14.63;84.83
58092;BME280;43896;48.178;11.578;2023-10-19T15:14:20;93938.00;;;14.67;84.88
58092;BME280;43896;48.178;11.578;2023-10-19T15:16:47;93949.34;;;15.14;83.15
58092;BME280;43896;48.178;11.578;2023-10-19T15:19:12;93943.50;;;15.53;80.36
58092;BME280;43896;48.178;11.578;2023-10-19T15:21:40;93950.03;;;15.62;79.66
58092;BME280;43896;48.178;11.578;2023-10-19T15:24:07;93936.00;;;15.50;79.97
58092;BME280;43896;48.178;11.578;2023-10-19T15:26:32;93941.50;;;15.19;81.89
58092;BME280;43896;48.178;11.578;2023-10-19T15:28:57;93933.19;;;15.28;81.54
58092;BME280;43896;48.178;11.578;2023-10-19T15:31:23;93928.19;;;15.03;82.87
58092;BME280;43896;48.178;11.578;2023-10-19T15:33:49;93922.06;;;15.02;83.15
58092;BME280;43896;48.178;11.578;2023-10-19T15:39:18;93931.81;;;15.66;79.89
58092;BME280;43896;48.178;11.578;2023-10-19T15:41:43;93931.09;;;15.70;79.78
58092;BME280;43896;48.178;11.578;2023-10-19T15:44:08;93920.81;;;15.16;81.33
58092;BME280;43896;48.178;11.578;2023-10-19T15:52:21;93880.47;;;15.26;80.84
58092;BME280;43896;48.178;11.578;2023-10-19T15:55:04;93889.34;;;15.20;80.98
58092;BME280;43896;48.178;11.578;2023-10-19T16:00:45;93890.09;;;15.44;79.27
58092;BME280;43896;48.178;11.578;2023-10-19T16:03:12;93889.06;;;15.05;81.80
58092;BME280;43896;48.178;11.578;2023-10-19T16:05:37;93890.31;;;15.02;82.52
58092;BME280;43896;48.178;11.578;2023-10-19T16:08:13;93885.19;;;14.84;82.51
58092;BME280;43896;48.178;11.578;2023-10-19T16:10:38;93888.63;;;14.72;84.07
58092;BME280;43896;48.178;11.578;2023-10-19T16:13:03;93885.00;;;15.14;81.80
58092;BME280;43896;48.178;11.578;2023-10-19T16:15:29;93891.09;;;15.14;81.52
58092;BME280;43896;48.178;11.578;2023-10-19T16:17:54;93885.63;;;14.92;81.79
58092;BME280;43896;48.178;11.578;2023-10-19T16:20:23;93886.09;;;14.54;83.57
58092;BME280;43896;48.178;11.578;2023-10-19T16:22:54;93880.78;;;14.30;84.67
58092;BME280;43896;48.178;11.578;2023-10-19T16:25:23;93878.75;;;13.78;87.86
58092;BME280;43896;48.178;11.578;2023-10-19T16:27:49;93880.19;;;13.93;87.34
58092;BME280;43896;48.178;11.578;2023-10-19T16:30:14;93888.47;;;13.96;87.52
58092;BME280;43896;48.178;11.578;2023-10-19T16:32:42;93901.34;;;14.16;86.25
58092;BME280;43896;48.178;11.578;2023-10-19T16:35:07;93900.72;;;13.91;86.79
58092;BME280;43896;48.178;11.578;2023-10-19T16:37:49;93896.09;;;14.52;84.08
58092;BME280;43896;48.178;11.578;2023-10-19T16:40:40;93884.13;;;14.85;81.82
58092;BME280;43896;48.178;11.578;2023-10-19T16:43:19;93892.84;;;14.14;84.30
58092;BME280;43896;48.178;11.578;2023-10-19T16:45:44;93902.75;;;14.54;83.16
58092;BME280;43896;48.178;11.578;2023-10-19T16:48:15;93906.88;;;14.26;83.61
58092;BME280;43896;48.178;11.578;2023-10-19T16:50:40;93916.44;;;14.39;84.04
58092;BME280;43896;48.178;11.578;2023-10-19T16:53:12;93899.09;;;14.67;82.16
58092;BME280;43896;48.178;11.578;2023-10-19T16:55:37;93895.50;;;14.85;81.12
58092;BME280;43896;48.178;11.578;2023-10-19T16:58:03;93896.66;;;14.54;81.37
58092;BME280;43896;48.178;11.578;2023-10-19T17:00:31;93890.31;;;14.19;83.62
58092;BME280;43896;48.178;11.578;2023-10-19T17:02:58;93886.88;;;14.07;83.89
58092;BME280;43896;48.178;11.578;2023-10-19T17:05:24;93878.59;;;13.61;86.39
58092;BME280;43896;48.178;11.578;2023-10-19T17:07:50;93861.88;;;13.79;86.73
58092;BME280;43896;48.178;11.578;2023-10-19T17:10:15;93863.84;;;13.96;85.62
58092;BME280;43896;48.178;11.578;2023-10-19T17:12:41;93869.63;;;14.16;83.27
58092;BME280;43896;48.178;11.578;2023-10-19T17:18:22;93880.25;;;14.63;81.16
58092;BME280;43896;48.178;11.578;2023-10-19T17:24:20;93886.09;;;14.77;79.81
58092;BME280;43896;48.178;11.578;2023-10-19T17:27:11;93880.13;;;14.82;79.09
58092;BME280;43896;48.178;11.578;2023-10-19T17:29:37;93888.31;;;14.69;79.84
58092;BME280;43896;48.178;11.578;2023-10-19T17:32:03;93881.50;;;14.73;79.48
58092;BME280;43896;48.178;11.578;2023-10-19T17:34:29;93883.00;;;14.69;79.39
58092;BME280;43896;48.178;11.578;2023-10-19T17:36:59;93887.13;;;14.65;79.31
58092;BME280;43896;48.178;11.578;2023-10-19T17:39:27;93879.69;;;14.61;79.27
58092;BME280;43896;48.178;11.578;2023-10-19T17:41:54;93863.44;;;14.58;79.15
58092;BME280;43896;48.178;11.578;2023-10-19T17:44:19;93862.03;;;14.55;78.96
58092;BME280;43896;48.178;11.578;2023-10-19T17:46:45;93859.28;;;14.50;79.11
58092;BME280;43896;48.178;11.578;2023-10-19T17:49:11;93866.41;;;14.14;80.21
58092;BME280;43896;48.178;11.578;2023-10-19T17:51:37;93857.25;;;14.29;80.26
58092;BME280;43896;48.178;11.578;2023-10-19T17:54:03;93858.72;;;14.36;79.64
58092;BME280;43896;48.178;11.578;2023-10-19T17:56:33;93842.16;;;14.41;79.38
58092;BME280;43896;48.178;11.578;2023-10-19T17:58:58;93838.25;;;14.43;78.87
58092;BME280;43896;48.178;11.578;2023-10-19T18:01:24;93852.75;;;14.41;78.79
58092;BME280;43896;48.178;11.578;2023-10-19T18:03:52;93847.47;;;14.29;79.33
58092;BME280;43896;48.178;11.578;2023-10-19T18:06:19;93846.19;;;14.08;80.46
58092;BME280;43896;48.178;11.578;2023-10-19T18:08:45;93841.91;;;13.95;81.16
58092;BME280;43896;48.178;11.578;2023-10-19T18:13:50;93845.16;;;14.21;79.44
58092;BME280;43896;48.178;11.578;2023-10-19T18:19:27;93835.16;;;13.99;80.73
58092;BME280;43896;48.178;11.578;2023-10-19T18:21:57;93817.22;;;14.13;79.88
58092;BME280;43896;48.178;11.578;2023-10-19T18:24:22;93814.59;;;14.13;79.78
58092;BME280;43896;48.178;11.578;2023-10-19T18:26:50;93811.47;;;14.04;80.30
58092;BME280;43896;48.178;11.578;2023-10-19T18:29:15;93799.19;;;14.10;79.57
58092;BME280;43896;48.178;11.578;2023-10-19T18:32:41;93792.16;;;14.04;79.87
58092;BME280;43896;48.178;11.578;2023-10-19T18:35:07;93784.34;;;13.01;84.05
58092;BME280;43896;48.178;11.578;2023-10-19T18:37:35;93782.56;;;12.83;85.10
58092;BME280;43896;48.178;11.578;2023-10-19T18:40:00;93771.22;;;12.83;84.99
58092;BME280;43896;48.178;11.578;2023-10-19T18:42:27;93748.94;;;12.79;85.34
58092;BME280;43896;48.178;11.578;2023-10-19T18:44:55;93746.06;;;12.80;85.64
58092;BME280;43896;48.178;11.578;2023-10-19T18:47:22;93739.41;;;12.78;85.74
58092;BME280;43896;48.178;11.578;2023-10-19T18:49:55;93742.06;;;12.78;86.26
58092;BME280;43896;48.178;11.578;2023-10-19T18:52:21;93735.88;;;12.84;85.88
58092;BME280;43896;48.178;11.578;2023-10-19T18:54:49;93734.06;;;12.84;86.32
58092;BME280;43896;48.178;11.578;2023-10-19T18:57:14;93731.66;;;12.83;86.62
58092;BME280;43896;48.178;11.578;2023-10-19T18:59:39;93741.59;;;12.81;87.20
58092;BME280;43896;48.178;11.578;2023-10-19T19:02:05;93741.72;;;12.86;86.64
58092;BME280;43896;48.178;11.578;2023-10-19T19:04:31;93739.56;;;12.83;87.09
58092;BME280;43896;48.178;11.578;2023-10-19T19:06:57;93753.06;;;12.74;87.14
58092;BME280;43896;48.178;11.578;2023-10-19T19:09:22;93748.22;;;12.71;87.54
58092;BME280;43896;48.178;11.578;2023-10-19T19:11:48;93749.38;;;12.75;87.19
58092;BME280;43896;48.178;11.578;2023-10-19T19:14:16;93746.38;;;13.02;85.94
58092;BME280;43896;48.178;11.578;2023-10-19T19:16:59;93745.84;;;13.12;85.43
58092;BME280;43896;48.178;11.578;2023-10-19T19:19:33;93733.66;;;12.69;87.30